createdAt,value
2023-11-20T00:00:43.713Z,0
2023-11-20T00:01:59.994Z,0
2023-11-20T00:03:16.294Z,0
2023-11-20T00:04:31.608Z,0
2023-11-20T00:05:47.907Z,0
2023-11-20T00:07:04.183Z,0
2023-11-20T00:08:20.484Z,0
2023-11-20T00:09:36.000Z,0
2023-11-20T00:10:53.079Z,0
2023-11-20T00:12:09.375Z,0
2023-11-20T00:13:25.661Z,0
2023-11-20T00:14:41.967Z,0
2023-11-20T00:15:58.259Z,0
2023-11-20T00:17:14.548Z,0
2023-11-20T00:18:30.837Z,0
2023-11-20T00:19:47.151Z,0
2023-11-20T00:21:02.437Z,0
2023-11-20T00:22:18.767Z,0
2023-11-20T00:23:35.035Z,0
2023-11-20T00:24:51.324Z,0
2023-11-20T00:26:07.627Z,0
2023-11-20T00:27:23.922Z,0
2023-11-20T00:28:39.236Z,0
2023-11-20T00:29:55.520Z,0
2023-11-20T00:31:11.821Z,0
2023-11-20T00:32:28.110Z,0
2023-11-20T00:33:44.408Z,0
2023-11-20T00:35:00.732Z,0
2023-11-20T00:36:16.991Z,0
2023-11-20T00:37:33.287Z,0
2023-11-20T00:38:49.599Z,0
2023-11-20T00:40:05.888Z,0
2023-11-20T00:41:22.172Z,0
2023-11-20T00:42:38.465Z,0
2023-11-20T00:43:54.767Z,0
2023-11-20T00:45:10.083Z,0
2023-11-20T00:46:26.375Z,0
2023-11-20T00:47:42.667Z,0
2023-11-20T00:48:58.968Z,0
2023-11-20T00:50:15.266Z,0
2023-11-20T00:51:31.550Z,0
2023-11-20T00:52:47.851Z,0
2023-11-20T00:54:04.140Z,0
2023-11-20T00:55:20.428Z,0
2023-11-20T00:56:36.725Z,0
2023-11-20T00:57:53.021Z,0
2023-11-20T00:59:09.000Z,0
2023-11-20T01:00:25.630Z,0
2023-11-20T01:01:40.914Z,0
2023-11-20T01:02:57.229Z,0
2023-11-20T01:04:13.520Z,0
2023-11-20T01:05:29.813Z,0
2023-11-20T01:06:46.095Z,0
2023-11-20T01:08:02.424Z,0
2023-11-20T01:09:18.684Z,0
2023-11-20T01:10:34.982Z,0
2023-11-20T01:11:51.270Z,0
2023-11-20T01:13:07.575Z,0
2023-11-20T01:14:23.876Z,0
2023-11-20T01:15:40.174Z,0
2023-11-20T01:16:56.453Z,0
2023-11-20T01:18:11.769Z,0
2023-11-20T01:19:28.068Z,0
2023-11-20T01:20:44.358Z,0
2023-11-20T01:22:00.652Z,0
2023-11-20T01:23:16.955Z,0
2023-11-20T01:24:33.239Z,0
2023-11-20T01:25:49.570Z,0
2023-11-20T01:27:05.826Z,0
2023-11-20T01:28:22.132Z,0
2023-11-20T01:29:38.410Z,0
2023-11-20T01:30:54.707Z,0
2023-11-20T01:32:10.999Z,0
2023-11-20T01:33:27.298Z,0
2023-11-20T01:34:42.623Z,0
2023-11-20T01:35:58.899Z,0
2023-11-20T01:37:15.201Z,0
2023-11-20T01:38:31.526Z,0
2023-11-20T01:39:47.797Z,0
2023-11-20T01:41:04.089Z,0
2023-11-20T01:42:20.385Z,0
2023-11-20T01:43:36.676Z,0
2023-11-20T01:44:52.978Z,0
2023-11-20T01:46:09.272Z,0
2023-11-20T01:47:25.574Z,0
2023-11-20T01:48:41.867Z,0
2023-11-20T01:49:58.158Z,0
2023-11-20T01:51:13.464Z,0
2023-11-20T01:52:29.785Z,0
2023-11-20T01:53:46.053Z,0
2023-11-20T01:55:02.344Z,0
2023-11-20T01:56:18.641Z,0
2023-11-20T01:58:51.242Z,0
2023-11-20T02:00:07.517Z,0
2023-11-20T02:01:23.841Z,0
2023-11-20T02:02:40.119Z,0
2023-11-20T02:03:56.421Z,0
2023-11-20T02:05:12.695Z,0
2023-11-20T02:06:29.003Z,0
2023-11-20T02:07:44.310Z,0
2023-11-20T02:09:00.606Z,0
2023-11-20T02:10:16.904Z,0
2023-11-20T02:11:33.192Z,0
2023-11-20T02:12:49.487Z,0
2023-11-20T02:14:05.800Z,0
2023-11-20T02:15:22.092Z,0
2023-11-20T02:16:38.381Z,0
2023-11-20T02:17:54.676Z,0
2023-11-20T02:19:10.951Z,0
2023-11-20T02:20:27.250Z,0
2023-11-20T02:21:43.541Z,0
2023-11-20T02:22:59.836Z,0
2023-11-20T02:24:15.161Z,0
2023-11-20T02:25:31.454Z,0
2023-11-20T02:26:47.758Z,0
2023-11-20T02:28:04.044Z,0
2023-11-20T02:29:20.323Z,0
2023-11-20T02:30:36.622Z,0
2023-11-20T02:31:52.919Z,0
2023-11-20T02:33:09.207Z,0
2023-11-20T02:34:25.518Z,0
2023-11-20T02:35:41.809Z,0
2023-11-20T02:36:58.093Z,0
2023-11-20T02:38:14.396Z,0
2023-11-20T02:39:30.693Z,0
2023-11-20T02:40:45.991Z,0
2023-11-20T02:42:02.301Z,0
2023-11-20T02:43:18.604Z,0
2023-11-20T02:44:34.878Z,0
2023-11-20T02:45:51.174Z,0
2023-11-20T02:48:23.756Z,0
2023-11-20T02:49:40.060Z,0
2023-11-20T02:50:56.356Z,0
2023-11-20T02:52:12.638Z,0
2023-11-20T02:53:28.943Z,0
2023-11-20T02:54:45.235Z,0
2023-11-20T02:56:01.541Z,0
2023-11-20T02:57:16.833Z,0
2023-11-20T02:58:33.134Z,0
2023-11-20T02:59:49.434Z,0
2023-11-20T03:01:05.726Z,0
2023-11-20T03:02:22.047Z,0
2023-11-20T03:03:38.323Z,0
2023-11-20T03:04:54.622Z,0
2023-11-20T03:06:10.913Z,0
2023-11-20T03:07:27.205Z,0
2023-11-20T03:08:43.514Z,0
2023-11-20T03:09:59.791Z,0
2023-11-20T03:11:16.086Z,0
2023-11-20T03:12:32.384Z,0
2023-11-20T03:13:47.694Z,0
2023-11-20T03:15:03.000Z,0
2023-11-20T03:16:20.279Z,0
2023-11-20T03:17:36.590Z,0
2023-11-20T03:18:52.857Z,0
2023-11-20T03:20:09.149Z,0
2023-11-20T03:21:25.445Z,0
2023-11-20T03:22:41.747Z,0
2023-11-20T03:23:58.032Z,0
2023-11-20T03:25:14.333Z,0
2023-11-20T03:26:30.627Z,0
2023-11-20T03:27:46.936Z,0
2023-11-20T03:29:03.211Z,0
2023-11-20T03:30:18.552Z,0
2023-11-20T03:31:34.828Z,0
2023-11-20T03:32:51.131Z,0
2023-11-20T03:34:07.425Z,0
2023-11-20T03:35:23.730Z,0
2023-11-20T03:36:40.004Z,0
2023-11-20T03:37:56.294Z,0
2023-11-20T03:39:12.603Z,0
2023-11-20T03:40:28.877Z,0
2023-11-20T03:41:45.191Z,0
2023-11-20T03:43:01.506Z,0
2023-11-20T03:44:17.765Z,0
2023-11-20T03:45:34.085Z,0
2023-11-20T03:46:49.386Z,0
2023-11-20T03:48:05.679Z,0
2023-11-20T03:49:21.975Z,0
2023-11-20T03:50:38.266Z,0
2023-11-20T03:51:54.550Z,0
2023-11-20T03:53:10.867Z,0
2023-11-20T03:54:27.143Z,0
2023-11-20T03:55:43.450Z,0
2023-11-20T03:56:59.733Z,0
2023-11-20T03:58:16.035Z,0
2023-11-20T03:59:32.328Z,0
2023-11-20T04:00:48.605Z,0
2023-11-20T04:02:04.909Z,0
2023-11-20T04:03:20.228Z,0
2023-11-20T04:04:36.522Z,0
2023-11-20T04:05:52.813Z,0
2023-11-20T04:07:09.111Z,0
2023-11-20T04:08:25.409Z,0
2023-11-20T04:09:41.696Z,0
2023-11-20T04:10:58.004Z,0
2023-11-20T04:12:14.284Z,0
2023-11-20T04:13:30.585Z,0
2023-11-20T04:14:46.882Z,0
2023-11-20T04:16:03.169Z,0
2023-11-20T04:17:19.454Z,0
2023-11-20T04:18:35.751Z,0
2023-11-20T04:19:51.076Z,0
2023-11-20T04:21:07.360Z,0
2023-11-20T04:22:23.653Z,0
2023-11-20T04:23:39.960Z,0
2023-11-20T04:24:56.253Z,0
2023-11-20T04:26:12.532Z,0
2023-11-20T04:27:28.830Z,0
2023-11-20T04:28:45.133Z,0
2023-11-20T04:30:01.423Z,0
2023-11-20T04:31:17.712Z,0
2023-11-20T04:32:34.011Z,0
2023-11-20T04:33:50.296Z,0
2023-11-20T04:35:06.592Z,0
2023-11-20T04:36:21.905Z,0
2023-11-20T04:37:38.204Z,0
2023-11-20T04:38:54.494Z,0
2023-11-20T04:40:10.796Z,0
2023-11-20T04:41:27.098Z,0
2023-11-20T04:42:43.385Z,0
2023-11-20T04:43:58.690Z,0
2023-11-20T04:45:14.985Z,0
2023-11-20T04:46:31.296Z,0
2023-11-20T04:47:47.576Z,0
2023-11-20T04:49:03.868Z,0
2023-11-20T04:50:20.174Z,0
2023-11-20T04:51:36.467Z,0
2023-11-20T04:52:52.770Z,0
2023-11-20T04:54:09.048Z,0
2023-11-20T04:55:25.350Z,0
2023-11-20T04:56:41.648Z,0
2023-11-20T04:57:57.938Z,0
2023-11-20T04:59:14.241Z,0
2023-11-20T05:00:29.551Z,0
2023-11-20T05:01:45.833Z,0
2023-11-20T05:03:02.132Z,0
2023-11-20T05:04:18.416Z,0
2023-11-20T05:05:34.712Z,0
2023-11-20T05:06:51.038Z,0
2023-11-20T05:08:07.304Z,0
2023-11-20T05:09:23.593Z,0
2023-11-20T05:10:39.895Z,0
2023-11-20T05:11:56.194Z,0
2023-11-20T05:13:12.479Z,0
2023-11-20T05:14:28.788Z,0
2023-11-20T05:15:45.071Z,0
2023-11-20T05:17:00.376Z,0
2023-11-20T05:18:16.673Z,0
2023-11-20T05:19:33.000Z,0
2023-11-20T05:20:49.277Z,0
2023-11-20T05:22:05.574Z,0
2023-11-20T05:23:21.872Z,0
2023-11-20T05:24:38.145Z,0
2023-11-20T05:25:54.446Z,0
2023-11-20T05:27:10.740Z,0
2023-11-20T05:28:27.044Z,0
2023-11-20T05:29:43.322Z,0
2023-11-20T05:30:59.633Z,0
2023-11-20T05:32:15.910Z,0
2023-11-20T05:33:31.251Z,0
2023-11-20T05:34:47.532Z,0
2023-11-20T05:36:03.817Z,0
2023-11-20T05:37:20.144Z,0
2023-11-20T05:38:36.000Z,0
2023-11-20T05:39:52.705Z,0
2023-11-20T05:41:08.995Z,0
2023-11-20T05:42:25.289Z,0
2023-11-20T05:43:41.580Z,0
2023-11-20T05:44:57.873Z,0
2023-11-20T05:46:14.169Z,0
2023-11-20T05:47:30.465Z,0
2023-11-20T05:48:46.757Z,0
2023-11-20T05:50:02.084Z,0
2023-11-20T05:51:18.367Z,0
2023-11-20T05:52:34.678Z,0
2023-11-20T05:53:50.963Z,0
2023-11-20T05:55:07.272Z,0
2023-11-20T05:56:23.544Z,0
2023-11-20T05:57:39.833Z,0
2023-11-20T05:58:56.129Z,0
2023-11-20T06:00:12.432Z,0
2023-11-20T06:01:28.727Z,0
2023-11-20T06:02:45.009Z,0
2023-11-20T06:04:01.308Z,0
2023-11-20T06:05:17.612Z,0
2023-11-20T06:06:32.924Z,0
2023-11-20T06:07:49.216Z,0
2023-11-20T06:09:05.497Z,0
2023-11-20T06:10:21.739Z,1
2023-11-20T06:11:38.031Z,0
2023-11-20T06:12:54.342Z,0
2023-11-20T06:14:10.585Z,1
2023-11-20T06:15:26.844Z,1
2023-11-20T06:16:43.117Z,0
2023-11-20T06:17:59.411Z,0
2023-11-20T06:19:15.722Z,0
2023-11-20T06:20:32.007Z,0
2023-11-20T06:21:48.256Z,1
2023-11-20T06:23:03.577Z,0
2023-11-20T06:24:19.859Z,0
2023-11-20T06:25:36.165Z,0
2023-11-20T06:26:52.461Z,0
2023-11-20T06:28:08.700Z,1
2023-11-20T06:29:24.937Z,1
2023-11-20T06:30:41.178Z,1
2023-11-20T06:31:57.435Z,4
2023-11-20T06:33:13.664Z,4
2023-11-20T06:34:29.917Z,4
2023-11-20T06:35:46.140Z,4
2023-11-20T06:37:02.390Z,4
2023-11-20T06:38:18.627Z,4
2023-11-20T06:39:33.887Z,3
2023-11-20T06:40:50.117Z,2
2023-11-20T06:42:06.374Z,3
2023-11-20T06:43:22.609Z,2
2023-11-20T06:44:38.844Z,5
2023-11-20T06:45:55.083Z,5
2023-11-20T06:47:11.323Z,3
2023-11-20T06:48:27.558Z,4
2023-11-20T06:49:43.807Z,5
2023-11-20T06:51:00.050Z,4
2023-11-20T06:52:16.289Z,5
2023-11-20T06:53:32.535Z,6
2023-11-20T06:54:48.771Z,6
2023-11-20T06:56:04.028Z,6
2023-11-20T06:57:20.267Z,9
2023-11-20T06:58:36.504Z,7
2023-11-20T06:59:52.743Z,8
2023-11-20T07:01:08.989Z,8
2023-11-20T07:02:25.238Z,10
2023-11-20T07:03:41.471Z,11
2023-11-20T07:04:57.718Z,11
2023-11-20T07:06:13.976Z,10
2023-11-20T07:07:30.205Z,11
2023-11-20T07:08:46.427Z,17
2023-11-20T07:10:02.673Z,14
2023-11-20T07:11:18.918Z,16
2023-11-20T07:12:34.172Z,18
2023-11-20T07:13:50.444Z,19
2023-11-20T07:15:06.651Z,20
2023-11-20T07:16:22.899Z,21
2023-11-20T07:17:39.138Z,21
2023-11-20T07:18:55.380Z,31
2023-11-20T07:20:11.619Z,24
2023-11-20T07:21:27.878Z,33
2023-11-20T07:22:44.097Z,30
2023-11-20T07:24:00.331Z,33
2023-11-20T07:25:16.564Z,34
2023-11-20T07:26:32.833Z,30
2023-11-20T07:27:49.078Z,34
2023-11-20T07:29:04.310Z,39
2023-11-20T07:30:20.546Z,39
2023-11-20T07:31:36.802Z,36
2023-11-20T07:32:53.024Z,42
2023-11-20T07:34:09.263Z,37
2023-11-20T07:35:25.523Z,31
2023-11-20T07:36:41.752Z,26
2023-11-20T07:37:57.994Z,29
2023-11-20T07:39:14.229Z,34
2023-11-20T07:40:30.470Z,34
2023-11-20T07:41:46.712Z,37
2023-11-20T07:43:02.955Z,39
2023-11-20T07:44:19.187Z,40
2023-11-20T07:45:34.460Z,48
2023-11-20T07:46:50.686Z,39
2023-11-20T07:48:06.933Z,43
2023-11-20T07:49:23.171Z,51
2023-11-20T07:50:39.422Z,44
2023-11-20T07:51:55.646Z,45
2023-11-20T07:53:11.889Z,50
2023-11-20T07:54:28.145Z,48
2023-11-20T07:55:44.374Z,45
2023-11-20T07:57:00.608Z,58
2023-11-20T07:58:16.868Z,59
2023-11-20T07:59:33.094Z,43
2023-11-20T08:00:49.335Z,53
2023-11-20T08:02:04.600Z,50
2023-11-20T08:03:20.830Z,55
2023-11-20T08:04:37.074Z,69
2023-11-20T08:05:53.320Z,35
2023-11-20T08:07:09.552Z,56
2023-11-20T08:08:25.790Z,50
2023-11-20T08:09:42.036Z,33
2023-11-20T08:10:58.279Z,52
2023-11-20T08:12:14.523Z,53
2023-11-20T08:13:30.764Z,46
2023-11-20T08:14:47.004Z,53
2023-11-20T08:16:03.243Z,49
2023-11-20T08:17:19.479Z,44
2023-11-20T08:18:34.729Z,23
2023-11-20T08:19:50.983Z,35
2023-11-20T08:21:07.210Z,32
2023-11-20T08:22:23.449Z,43
2023-11-20T08:23:39.703Z,59
2023-11-20T08:24:55.945Z,73
2023-11-20T08:26:12.181Z,77
2023-11-20T08:27:28.420Z,89
2023-11-20T08:28:44.661Z,77
2023-11-20T08:30:00.899Z,90
2023-11-20T08:31:17.148Z,66
2023-11-20T08:32:33.384Z,66
2023-11-20T08:33:49.622Z,66
2023-11-20T08:35:04.875Z,59
2023-11-20T08:36:21.126Z,60
2023-11-20T08:37:37.351Z,53
2023-11-20T08:38:53.601Z,45
2023-11-20T08:40:09.836Z,52
2023-11-20T08:41:26.086Z,47
2023-11-20T08:42:42.332Z,51
2023-11-20T08:43:58.554Z,56
2023-11-20T08:45:14.803Z,62
2023-11-20T08:46:31.053Z,66
2023-11-20T08:47:47.281Z,68
2023-11-20T08:49:03.513Z,80
2023-11-20T08:50:19.771Z,88
2023-11-20T08:51:35.018Z,86
2023-11-20T08:52:51.266Z,71
2023-11-20T08:54:07.499Z,78
2023-11-20T08:55:23.743Z,64
2023-11-20T08:56:39.974Z,61
2023-11-20T08:57:56.213Z,62
2023-11-20T08:59:11.486Z,71
2023-11-20T09:00:27.724Z,80
2023-11-20T09:01:43.966Z,89
2023-11-20T09:03:00.219Z,102
2023-11-20T09:04:16.452Z,85
2023-11-20T09:05:32.682Z,88
2023-11-20T09:06:48.925Z,98
2023-11-20T09:08:05.165Z,96
2023-11-20T09:09:21.418Z,95
2023-11-20T09:10:37.654Z,93
2023-11-20T09:11:53.894Z,100
2023-11-20T09:13:10.135Z,105
2023-11-20T09:14:26.375Z,139
2023-11-20T09:15:41.622Z,126
2023-11-20T09:16:57.865Z,109
2023-11-20T09:18:14.108Z,96
2023-11-20T09:19:30.355Z,98
2023-11-20T09:20:46.594Z,99
2023-11-20T09:22:02.829Z,112
2023-11-20T09:23:19.067Z,110
2023-11-20T09:24:35.301Z,117
2023-11-20T09:25:51.545Z,108
2023-11-20T09:27:07.784Z,96
2023-11-20T09:28:24.023Z,101
2023-11-20T09:29:40.282Z,118
2023-11-20T09:30:56.508Z,136
2023-11-20T09:32:11.763Z,144
2023-11-20T09:33:28.001Z,164
2023-11-20T09:34:44.259Z,214
2023-11-20T09:36:00.500Z,175
2023-11-20T09:37:16.729Z,175
2023-11-20T09:38:32.978Z,159
2023-11-20T09:39:49.222Z,133
2023-11-20T09:41:05.449Z,116
2023-11-20T09:42:21.706Z,72
2023-11-20T09:43:37.936Z,106
2023-11-20T09:44:54.182Z,96
2023-11-20T09:46:10.425Z,103
2023-11-20T09:47:26.653Z,104
2023-11-20T09:48:41.000Z,99
2023-11-20T09:49:58.146Z,94
2023-11-20T09:51:14.391Z,115
2023-11-20T09:52:30.634Z,111
2023-11-20T09:53:46.874Z,134
2023-11-20T09:55:03.109Z,143
2023-11-20T09:56:19.355Z,142
2023-11-20T09:57:35.602Z,140
2023-11-20T09:58:51.836Z,127
2023-11-20T10:00:08.067Z,145
2023-11-20T10:01:24.319Z,130
2023-11-20T10:02:40.552Z,131
2023-11-20T10:03:56.790Z,133
2023-11-20T10:05:12.054Z,173
2023-11-20T10:06:28.286Z,166
2023-11-20T10:07:44.529Z,111
2023-11-20T10:09:00.776Z,96
2023-11-20T10:10:17.011Z,97
2023-11-20T10:11:33.258Z,98
2023-11-20T10:12:49.500Z,78
2023-11-20T10:14:05.731Z,97
2023-11-20T10:15:21.966Z,112
2023-11-20T10:16:38.210Z,92
2023-11-20T10:17:54.449Z,101
2023-11-20T10:19:10.701Z,76
2023-11-20T10:20:26.941Z,99
2023-11-20T10:21:42.184Z,84
2023-11-20T10:22:58.432Z,112
2023-11-20T10:24:14.666Z,107
2023-11-20T10:25:30.917Z,70
2023-11-20T10:26:47.148Z,65
2023-11-20T10:28:03.397Z,72
2023-11-20T10:29:19.631Z,77
2023-11-20T10:30:35.880Z,90
2023-11-20T10:31:52.118Z,93
2023-11-20T10:33:08.368Z,80
2023-11-20T10:34:24.601Z,86
2023-11-20T10:35:40.832Z,84
2023-11-20T10:36:57.071Z,65
2023-11-20T10:38:12.339Z,91
2023-11-20T10:39:28.592Z,88
2023-11-20T10:40:44.810Z,65
2023-11-20T10:42:01.074Z,74
2023-11-20T10:43:17.307Z,72
2023-11-20T10:44:33.537Z,63
2023-11-20T10:45:49.788Z,81
2023-11-20T10:47:06.009Z,86
2023-11-20T10:48:22.263Z,107
2023-11-20T10:49:38.490Z,59
2023-11-20T10:50:54.731Z,87
2023-11-20T10:52:10.981Z,79
2023-11-20T10:53:27.223Z,67
2023-11-20T10:54:42.473Z,62
2023-11-20T10:55:58.716Z,63
2023-11-20T10:57:14.967Z,55
2023-11-20T10:58:31.195Z,59
2023-11-20T10:59:47.437Z,61
2023-11-20T11:01:03.674Z,65
2023-11-20T11:02:19.918Z,70
2023-11-20T11:03:36.165Z,75
2023-11-20T11:04:52.405Z,85
2023-11-20T11:06:08.646Z,93
2023-11-20T11:07:24.880Z,101
2023-11-20T11:08:41.132Z,109
2023-11-20T11:09:57.368Z,123
2023-11-20T11:11:12.618Z,122
2023-11-20T11:12:28.867Z,114
2023-11-20T11:13:45.091Z,119
2023-11-20T11:15:01.339Z,126
2023-11-20T11:16:17.587Z,137
2023-11-20T11:17:33.819Z,136
2023-11-20T11:18:50.071Z,113
2023-11-20T11:20:06.301Z,105
2023-11-20T11:21:22.541Z,88
2023-11-20T11:22:38.780Z,100
2023-11-20T11:23:55.020Z,111
2023-11-20T11:25:11.273Z,97
2023-11-20T11:26:27.511Z,85
2023-11-20T11:27:42.755Z,79
2023-11-20T11:28:59.005Z,72
2023-11-20T11:30:15.247Z,71
2023-11-20T11:31:31.472Z,71
2023-11-20T11:32:47.718Z,73
2023-11-20T11:34:03.962Z,67
2023-11-20T11:35:20.196Z,62
2023-11-20T11:36:36.446Z,54
2023-11-20T11:37:52.684Z,59
2023-11-20T11:39:08.916Z,58
2023-11-20T11:40:25.171Z,68
2023-11-20T11:41:41.403Z,75
2023-11-20T11:42:57.651Z,83
2023-11-20T11:44:12.892Z,99
2023-11-20T11:45:29.135Z,102
2023-11-20T11:46:45.391Z,106
2023-11-20T11:48:01.612Z,111
2023-11-20T11:49:17.855Z,124
2023-11-20T11:50:34.113Z,131
2023-11-20T11:51:50.354Z,139
2023-11-20T11:53:06.592Z,127
2023-11-20T11:54:22.819Z,110
2023-11-20T11:55:39.059Z,78
2023-11-20T11:56:55.317Z,83
2023-11-20T11:58:11.539Z,109
2023-11-20T11:59:27.786Z,116
2023-11-20T12:00:43.045Z,101
2023-11-20T12:01:59.293Z,92
2023-11-20T12:03:15.532Z,80
2023-11-20T12:04:31.771Z,67
2023-11-20T12:05:48.003Z,76
2023-11-20T12:07:04.247Z,80
2023-11-20T12:08:20.485Z,77
2023-11-20T12:09:36.726Z,76
2023-11-20T12:10:52.966Z,76
2023-11-20T12:12:09.213Z,68
2023-11-20T12:13:25.447Z,61
2023-11-20T12:14:41.688Z,52
2023-11-20T12:15:57.920Z,52
2023-11-20T12:17:13.184Z,54
2023-11-20T12:18:29.433Z,62
2023-11-20T12:19:45.673Z,68
2023-11-20T12:21:01.907Z,71
2023-11-20T12:22:18.157Z,78
2023-11-20T12:23:34.380Z,70
2023-11-20T12:24:50.644Z,74
2023-11-20T12:26:06.859Z,79
2023-11-20T12:27:23.114Z,85
2023-11-20T12:28:39.339Z,96
2023-11-20T12:29:55.595Z,112
2023-11-20T12:31:11.820Z,118
2023-11-20T12:32:28.060Z,108
2023-11-20T12:33:43.322Z,101
2023-11-20T12:34:59.576Z,96
2023-11-20T12:36:15.810Z,88
2023-11-20T12:37:32.039Z,94
2023-11-20T12:38:48.278Z,94
2023-11-20T12:40:04.523Z,84
2023-11-20T12:41:20.759Z,76
2023-11-20T12:42:36.998Z,71
2023-11-20T12:43:53.255Z,69
2023-11-20T12:45:09.484Z,82
2023-11-20T12:46:25.732Z,74
2023-11-20T12:47:41.978Z,61
2023-11-20T12:48:58.213Z,59
2023-11-20T12:50:13.468Z,68
2023-11-20T12:51:29.697Z,72
2023-11-20T12:52:45.940Z,75
2023-11-20T12:54:02.182Z,64
2023-11-20T12:55:18.432Z,87
2023-11-20T12:56:34.670Z,55
2023-11-20T12:57:50.917Z,80
2023-11-20T12:59:07.147Z,94
2023-11-20T13:00:23.396Z,87
2023-11-20T13:01:39.632Z,62
2023-11-20T13:02:55.862Z,87
2023-11-20T13:04:12.113Z,94
2023-11-20T13:05:28.352Z,90
2023-11-20T13:06:43.608Z,88
2023-11-20T13:07:59.852Z,75
2023-11-20T13:09:16.083Z,107
2023-11-20T13:10:32.319Z,109
2023-11-20T13:11:48.566Z,118
2023-11-20T13:13:04.808Z,93
2023-11-20T13:14:20.080Z,85
2023-11-20T13:15:36.301Z,77
2023-11-20T13:16:52.561Z,84
2023-11-20T13:18:08.784Z,87
2023-11-20T13:19:25.029Z,70
2023-11-20T13:20:41.273Z,64
2023-11-20T13:21:57.518Z,69
2023-11-20T13:23:13.761Z,70
2023-11-20T13:24:30.003Z,70
2023-11-20T13:25:46.236Z,62
2023-11-20T13:27:02.487Z,55
2023-11-20T13:28:18.714Z,47
2023-11-20T13:29:34.963Z,42
2023-11-20T13:30:50.203Z,51
2023-11-20T13:32:06.444Z,59
2023-11-20T13:33:22.698Z,57
2023-11-20T13:34:38.934Z,50
2023-11-20T13:35:55.182Z,62
2023-11-20T13:37:11.416Z,65
2023-11-20T13:38:27.652Z,69
2023-11-20T13:39:43.891Z,62
2023-11-20T13:41:00.138Z,65
2023-11-20T13:42:16.368Z,65
2023-11-20T13:43:32.620Z,60
2023-11-20T13:44:48.858Z,59
2023-11-20T13:46:05.107Z,56
2023-11-20T13:47:20.362Z,48
2023-11-20T13:48:36.583Z,54
2023-11-20T13:49:52.837Z,49
2023-11-20T13:51:09.070Z,44
2023-11-20T13:52:25.335Z,49
2023-11-20T13:53:41.552Z,56
2023-11-20T13:54:57.802Z,55
2023-11-20T13:56:14.045Z,50
2023-11-20T13:57:30.282Z,43
2023-11-20T13:58:46.517Z,35
2023-11-20T14:00:02.766Z,33
2023-11-20T14:01:18.988Z,34
2023-11-20T14:02:35.241Z,31
2023-11-20T14:03:50.499Z,26
2023-11-20T14:05:06.743Z,25
2023-11-20T14:06:22.971Z,25
2023-11-20T14:07:39.213Z,24
2023-11-20T14:08:55.448Z,24
2023-11-20T14:10:11.703Z,24
2023-11-20T14:11:27.944Z,24
2023-11-20T14:12:44.176Z,24
2023-11-20T14:14:00.418Z,24
2023-11-20T14:15:16.654Z,24
2023-11-20T14:16:32.899Z,24
2023-11-20T14:17:49.159Z,24
2023-11-20T14:19:05.373Z,25
2023-11-20T14:20:20.628Z,25
2023-11-20T14:21:36.890Z,25
2023-11-20T14:22:53.132Z,25
2023-11-20T14:24:09.358Z,24
2023-11-20T14:25:25.589Z,26
2023-11-20T14:26:41.836Z,28
2023-11-20T14:27:58.077Z,27
2023-11-20T14:29:14.313Z,25
2023-11-20T14:30:30.568Z,25
2023-11-20T14:31:46.799Z,26
2023-11-20T14:33:03.046Z,28
2023-11-20T14:34:19.272Z,31
2023-11-20T14:35:35.524Z,34
2023-11-20T14:36:50.777Z,37
2023-11-20T14:38:07.016Z,38
2023-11-20T14:39:23.251Z,38
2023-11-20T14:40:39.491Z,37
2023-11-20T14:41:55.748Z,34
2023-11-20T14:43:11.994Z,31
2023-11-20T14:44:28.230Z,27
2023-11-20T14:45:44.474Z,22
2023-11-20T14:47:00.709Z,19
2023-11-20T14:48:16.943Z,16
2023-11-20T14:49:33.190Z,14
2023-11-20T14:50:49.426Z,12
2023-11-20T14:52:05.653Z,10
2023-11-20T14:53:20.915Z,9
2023-11-20T14:54:37.149Z,10
2023-11-20T14:55:53.410Z,11
2023-11-20T14:57:09.635Z,9
2023-11-20T14:58:25.875Z,7
2023-11-20T14:59:42.117Z,6
2023-11-20T15:00:58.360Z,5
2023-11-20T15:02:14.619Z,5
2023-11-20T15:03:30.851Z,5
2023-11-20T15:04:47.075Z,5
2023-11-20T15:06:03.321Z,5
2023-11-20T15:07:19.573Z,5
2023-11-20T15:08:35.800Z,4
2023-11-20T15:09:51.065Z,3
2023-11-20T15:11:07.300Z,3
2023-11-20T15:12:23.540Z,3
2023-11-20T15:13:39.782Z,2
2023-11-20T15:14:56.014Z,4
2023-11-20T15:16:12.266Z,2
2023-11-20T15:17:28.501Z,1
2023-11-20T15:18:44.755Z,2
2023-11-20T15:20:01.038Z,0
2023-11-20T15:21:17.346Z,0
2023-11-20T15:22:33.625Z,0
2023-11-20T15:23:49.930Z,0
2023-11-20T15:25:06.227Z,0
2023-11-20T15:26:21.523Z,0
2023-11-20T15:27:37.819Z,0
2023-11-20T15:28:54.125Z,0
2023-11-20T15:30:10.414Z,0
2023-11-20T15:31:26.672Z,1
2023-11-20T15:32:42.910Z,1
2023-11-20T15:33:59.202Z,0
2023-11-20T15:35:15.496Z,0
2023-11-20T15:36:31.804Z,0
2023-11-20T15:37:48.074Z,0
2023-11-20T15:39:04.388Z,0
2023-11-20T15:40:20.683Z,0
2023-11-20T15:41:36.963Z,0
2023-11-20T15:42:52.285Z,0
2023-11-20T15:44:08.582Z,0
2023-11-20T15:45:24.865Z,0
2023-11-20T15:46:41.159Z,0
2023-11-20T15:47:57.457Z,0
2023-11-20T15:49:13.750Z,0
2023-11-20T15:50:30.045Z,0
2023-11-20T15:51:46.330Z,0
2023-11-20T15:53:02.630Z,0
2023-11-20T15:54:18.935Z,0
2023-11-20T15:55:35.221Z,0
2023-11-20T15:56:51.517Z,0
2023-11-20T15:58:07.808Z,0
2023-11-20T15:59:23.115Z,0
2023-11-20T16:00:39.411Z,0
2023-11-20T16:01:55.709Z,0
2023-11-20T16:03:12.007Z,0
2023-11-20T16:04:28.320Z,0
2023-11-20T16:05:44.602Z,0
2023-11-20T16:07:00.884Z,0
2023-11-20T16:08:17.185Z,0
2023-11-20T16:09:33.483Z,0
2023-11-20T16:10:49.783Z,0
2023-11-20T16:12:06.066Z,0
2023-11-20T16:13:22.366Z,0
2023-11-20T16:14:38.649Z,0
2023-11-20T16:15:53.962Z,0
2023-11-20T16:17:10.257Z,0
2023-11-20T16:18:26.552Z,0
2023-11-20T16:19:42.856Z,0
2023-11-20T16:20:59.169Z,0
2023-11-20T16:22:15.437Z,0
2023-11-20T16:23:31.733Z,0
2023-11-20T16:24:48.020Z,0
2023-11-20T16:26:04.328Z,0
2023-11-20T16:27:20.626Z,0
2023-11-20T16:28:36.904Z,0
2023-11-20T16:29:53.219Z,0
2023-11-20T16:31:09.508Z,0
2023-11-20T16:32:24.823Z,0
2023-11-20T16:33:41.098Z,0
2023-11-20T16:34:57.404Z,0
2023-11-20T16:36:13.692Z,0
2023-11-20T16:37:30.009Z,0
2023-11-20T16:38:46.282Z,0
2023-11-20T16:40:02.601Z,0
2023-11-20T16:41:18.872Z,0
2023-11-20T16:42:35.174Z,0
2023-11-20T16:43:51.451Z,0
2023-11-20T16:45:07.758Z,0
2023-11-20T16:46:24.049Z,0
2023-11-20T16:47:40.349Z,0
2023-11-20T16:48:55.652Z,0
2023-11-20T16:50:11.954Z,0
2023-11-20T16:51:28.243Z,0
2023-11-20T16:52:44.535Z,0
2023-11-20T16:54:00.822Z,0
2023-11-20T16:55:17.134Z,0
2023-11-20T16:56:33.423Z,0
2023-11-20T16:57:49.722Z,0
2023-11-20T16:59:06.033Z,0
2023-11-20T17:00:22.301Z,0
2023-11-20T17:01:38.609Z,0
2023-11-20T17:02:54.886Z,0
2023-11-20T17:04:11.179Z,0
2023-11-20T17:05:26.498Z,0
2023-11-20T17:06:42.786Z,0
2023-11-20T17:07:59.076Z,0
2023-11-20T17:09:15.375Z,0
2023-11-20T17:10:31.674Z,0
2023-11-20T17:11:47.967Z,0
2023-11-20T17:13:04.269Z,0
2023-11-20T17:14:20.558Z,0
2023-11-20T17:15:36.844Z,0
2023-11-20T17:16:53.152Z,0
2023-11-20T17:18:09.468Z,0
2023-11-20T17:19:25.742Z,0
2023-11-20T17:20:42.032Z,0
2023-11-20T17:21:57.348Z,0
2023-11-20T17:23:13.628Z,0
2023-11-20T17:24:29.941Z,0
2023-11-20T17:25:46.239Z,0
2023-11-20T17:27:02.521Z,0
2023-11-20T17:28:18.813Z,0
2023-11-20T17:29:34.138Z,0
2023-11-20T17:30:50.433Z,0
2023-11-20T17:32:06.726Z,0
2023-11-20T17:33:23.021Z,0
2023-11-20T17:34:39.303Z,0
2023-11-20T17:35:55.592Z,0
2023-11-20T17:37:11.904Z,0
2023-11-20T17:38:28.187Z,0
2023-11-20T17:39:44.491Z,0
2023-11-20T17:41:00.773Z,0
2023-11-20T17:42:17.099Z,0
2023-11-20T17:43:33.365Z,0
2023-11-20T17:44:49.665Z,0
2023-11-20T17:46:04.971Z,0
2023-11-20T17:47:21.258Z,0
2023-11-20T17:48:37.570Z,0
2023-11-20T17:49:53.868Z,0
2023-11-20T17:51:10.160Z,0
2023-11-20T17:52:26.447Z,0
2023-11-20T17:53:42.739Z,0
2023-11-20T17:54:59.033Z,0
2023-11-20T17:56:15.348Z,0
2023-11-20T17:57:31.617Z,0
2023-11-20T17:58:47.915Z,0
2023-11-20T18:00:04.200Z,0
2023-11-20T18:01:20.000Z,0
2023-11-20T18:02:36.816Z,0
2023-11-20T18:03:52.115Z,0
2023-11-20T18:05:08.413Z,0
2023-11-20T18:06:24.692Z,0
2023-11-20T18:07:41.003Z,0
2023-11-20T18:08:57.286Z,0
2023-11-20T18:10:13.591Z,0
2023-11-20T18:11:29.873Z,0
2023-11-20T18:12:46.173Z,0
2023-11-20T18:14:02.475Z,0
2023-11-20T18:15:18.752Z,0
2023-11-20T18:16:35.063Z,0
2023-11-20T18:17:51.340Z,0
2023-11-20T18:19:07.660Z,0
2023-11-20T18:20:22.961Z,0
2023-11-20T18:21:39.256Z,0
2023-11-20T18:22:55.538Z,0
2023-11-20T18:24:11.844Z,0
2023-11-20T18:25:28.135Z,0
2023-11-20T18:26:44.443Z,0
2023-11-20T18:28:00.730Z,0